createdAt,value
2017-11-17T00:01:33.128Z,24.20
2017-11-17T00:04:04.599Z,21.30
2017-11-17T00:06:33.044Z,22.92
2017-11-17T00:09:01.467Z,24.83
2017-11-17T00:11:29.762Z,21.73
2017-11-17T00:13:57.950Z,22.87
2017-11-17T00:16:26.418Z,25.67
2017-11-17T00:18:54.790Z,21.73
2017-11-17T00:21:23.180Z,23.00
2017-11-17T00:23:51.418Z,22.55
2017-11-17T00:26:19.666Z,21.02
2017-11-17T00:28:48.623Z,22.13
2017-11-17T00:31:17.707Z,21.27
2017-11-17T00:33:45.901Z,21.73
2017-11-17T00:36:14.029Z,19.92
2017-11-17T00:38:42.185Z,21.92
2017-11-17T00:41:10.325Z,21.58
2017-11-17T00:43:38.480Z,21.42
2017-11-17T00:46:06.880Z,26.70
2017-11-17T00:48:35.257Z,20.00
2017-11-17T00:51:03.538Z,22.80
2017-11-17T00:53:34.533Z,19.92
2017-11-17T00:56:02.709Z,21.75
2017-11-17T00:58:30.897Z,16.33
2017-11-17T01:00:59.090Z,17.15
2017-11-17T01:03:27.458Z,18.85
2017-11-17T01:05:55.717Z,17.92
2017-11-17T01:08:24.056Z,20.83
2017-11-17T01:10:52.353Z,20.10
2017-11-17T01:13:20.638Z,25.50
2017-11-17T01:15:48.808Z,15.88
2017-11-17T01:18:16.972Z,20.20
2017-11-17T01:20:45.015Z,20.52
2017-11-17T01:23:13.401Z,19.08
2017-11-17T01:25:42.550Z,15.32
2017-11-17T01:28:10.803Z,17.98
2017-11-17T01:30:39.043Z,20.45
2017-11-17T01:33:07.241Z,18.92
2017-11-17T01:35:36.177Z,20.08
2017-11-17T01:38:04.354Z,18.02
2017-11-17T01:40:32.397Z,16.30
2017-11-17T01:43:00.524Z,18.30
2017-11-17T01:45:28.613Z,14.32
2017-11-17T01:47:56.748Z,19.37
2017-11-17T01:50:24.898Z,15.18
2017-11-17T01:52:53.128Z,15.65
2017-11-17T01:55:21.379Z,18.65
2017-11-17T01:57:49.650Z,20.95
2017-11-17T02:00:17.839Z,15.35
2017-11-17T02:02:46.095Z,21.12
2017-11-17T02:05:14.228Z,18.02
2017-11-17T02:07:42.294Z,19.50
2017-11-17T02:10:10.471Z,20.85
2017-11-17T02:12:38.555Z,23.60
2017-11-17T02:15:06.664Z,18.30
2017-11-17T02:17:34.719Z,17.80
2017-11-17T02:20:02.945Z,20.27
2017-11-17T02:22:31.307Z,23.83
2017-11-17T02:24:59.534Z,18.35
2017-11-17T02:27:27.797Z,17.80
2017-11-17T02:29:56.962Z,17.27
2017-11-17T02:32:25.097Z,20.33
2017-11-17T02:34:53.225Z,17.00
2017-11-17T02:37:21.322Z,21.37
2017-11-17T02:39:50.287Z,21.40
2017-11-17T02:42:18.617Z,20.65
2017-11-17T02:44:46.882Z,24.10
2017-11-17T02:47:15.078Z,20.37
2017-11-17T02:49:44.193Z,18.67
2017-11-17T02:52:12.544Z,19.50
2017-11-17T02:54:40.801Z,22.73
2017-11-17T02:57:08.965Z,22.80
2017-11-17T02:59:38.062Z,19.73
2017-11-17T03:02:07.042Z,21.27
2017-11-17T03:04:35.149Z,20.70
2017-11-17T03:07:04.264Z,20.67
2017-11-17T03:09:37.723Z,17.85
2017-11-17T03:12:10.688Z,22.10
2017-11-17T03:14:43.449Z,23.80
2017-11-17T03:17:14.317Z,22.08
2017-11-17T03:19:44.486Z,21.33
2017-11-17T03:22:14.579Z,21.48
2017-11-17T03:24:45.261Z,16.42
2017-11-17T03:27:15.275Z,21.48
2017-11-17T03:29:45.249Z,21.70
2017-11-17T03:32:14.908Z,19.73
2017-11-17T03:34:44.641Z,25.73
2017-11-17T03:37:15.178Z,17.60
2017-11-17T03:39:44.672Z,22.83
2017-11-17T03:42:14.304Z,28.80
2017-11-17T03:44:42.508Z,23.10
2017-11-17T03:47:10.649Z,28.87
2017-11-17T03:49:38.705Z,27.55
2017-11-17T03:52:08.882Z,35.20
2017-11-17T03:54:37.021Z,25.85
2017-11-17T03:57:05.343Z,35.90
2017-11-17T03:59:33.595Z,27.58
2017-11-17T04:02:01.724Z,28.95
2017-11-17T04:04:29.747Z,34.60
2017-11-17T04:06:57.860Z,29.73
2017-11-17T04:09:25.916Z,21.62
2017-11-17T04:11:54.052Z,28.85
2017-11-17T04:14:22.200Z,31.67
2017-11-17T04:16:50.341Z,27.10
2017-11-17T04:19:19.140Z,32.55
2017-11-17T04:21:47.254Z,29.12
2017-11-17T04:24:15.306Z,23.77
2017-11-17T04:26:43.462Z,25.75
2017-11-17T04:29:11.659Z,28.27
2017-11-17T04:31:39.804Z,28.00
2017-11-17T04:34:07.952Z,31.92
2017-11-17T04:36:36.781Z,25.00
2017-11-17T04:39:05.014Z,27.30
2017-11-17T04:41:33.172Z,29.48
2017-11-17T04:44:01.578Z,25.62
2017-11-17T04:46:29.667Z,25.25
2017-11-17T04:48:57.796Z,27.87
2017-11-17T04:51:25.893Z,25.40
2017-11-17T04:53:54.026Z,23.83
2017-11-17T04:56:22.096Z,27.75
2017-11-17T04:58:50.262Z,26.00
2017-11-17T05:01:18.298Z,26.87
2017-11-17T05:03:47.166Z,24.87
2017-11-17T05:06:15.216Z,26.30
2017-11-17T05:08:43.383Z,26.67
2017-11-17T05:11:11.448Z,24.67
2017-11-17T05:13:43.264Z,26.92
2017-11-17T05:16:11.770Z,23.25
2017-11-17T05:18:39.914Z,28.25
2017-11-17T05:21:08.031Z,26.75
2017-11-17T05:23:36.219Z,29.50
2017-11-17T05:26:04.260Z,23.98
2017-11-17T05:28:32.428Z,27.25
2017-11-17T05:31:00.540Z,24.75
2017-11-17T05:33:28.669Z,28.25
2017-11-17T05:35:56.917Z,24.10
2017-11-17T05:38:25.187Z,26.00
2017-11-17T05:40:54.386Z,23.65
2017-11-17T05:43:22.786Z,26.58
2017-11-17T05:45:50.919Z,28.05
2017-11-17T05:48:19.184Z,26.23
2017-11-17T05:50:47.356Z,23.65
2017-11-17T05:53:15.447Z,21.80
2017-11-17T05:55:43.648Z,22.13
2017-11-17T05:58:12.525Z,24.83
2017-11-17T06:00:40.811Z,25.77
2017-11-17T06:03:09.028Z,26.98
2017-11-17T06:05:37.115Z,22.92
2017-11-17T06:08:05.116Z,21.60
2017-11-17T06:10:33.161Z,22.05
2017-11-17T06:13:01.233Z,21.40
2017-11-17T06:15:30.001Z,23.90
2017-11-17T06:17:58.685Z,22.75
2017-11-17T06:20:26.660Z,23.42
2017-11-17T06:22:54.730Z,24.63
2017-11-17T06:25:22.764Z,20.17
2017-11-17T06:27:50.690Z,18.40
2017-11-17T06:30:18.651Z,22.15
2017-11-17T06:32:46.559Z,19.58
2017-11-17T06:35:14.536Z,23.35
2017-11-17T06:37:42.465Z,23.55
2017-11-17T06:40:11.205Z,21.65
2017-11-17T06:42:39.263Z,17.40
2017-11-17T06:45:07.223Z,23.27
2017-11-17T06:47:35.157Z,19.87
2017-11-17T06:50:03.105Z,20.98
2017-11-17T06:52:31.053Z,25.80
2017-11-17T06:54:58.968Z,25.42
2017-11-17T06:57:27.695Z,21.80
2017-11-17T06:59:55.626Z,19.12
2017-11-17T07:02:23.585Z,22.95
2017-11-17T07:04:51.507Z,26.20
2017-11-17T07:07:19.479Z,23.95
2017-11-17T07:09:47.406Z,27.65
2017-11-17T07:12:15.560Z,22.30
2017-11-17T07:14:43.480Z,20.42
2017-11-17T07:17:11.451Z,28.40
2017-11-17T07:19:39.367Z,26.80
2017-11-17T07:22:07.368Z,34.17
2017-11-17T07:24:35.284Z,38.08
2017-11-17T07:27:03.266Z,38.28
2017-11-17T07:29:31.215Z,31.10
2017-11-17T07:31:59.219Z,42.67
2017-11-17T07:34:27.182Z,38.15
2017-11-17T07:36:55.176Z,31.95
2017-11-17T07:39:23.115Z,32.10
2017-11-17T07:41:51.192Z,35.85
2017-11-17T07:44:19.128Z,34.67
2017-11-17T07:46:47.125Z,43.50
2017-11-17T07:49:15.086Z,34.88
2017-11-17T07:51:43.096Z,37.15
2017-11-17T07:54:11.057Z,40.60
2017-11-17T07:56:38.991Z,42.70
2017-11-17T07:59:06.982Z,43.35
2017-11-17T08:01:34.907Z,40.60
2017-11-17T08:04:16.004Z,33.88
2017-11-17T08:06:43.972Z,47.20
2017-11-17T08:09:11.972Z,33.35
2017-11-17T08:11:39.907Z,41.75
2017-11-17T08:14:08.670Z,42.00
2017-11-17T08:16:36.605Z,41.47
2017-11-17T08:19:04.593Z,42.35
2017-11-17T08:21:33.332Z,46.85
2017-11-17T08:24:01.337Z,37.63
2017-11-17T08:26:32.226Z,44.60
2017-11-17T08:29:00.186Z,37.30
2017-11-17T08:31:28.083Z,45.42
2017-11-17T08:33:56.042Z,39.95
2017-11-17T08:36:23.951Z,46.45
2017-11-17T08:38:51.899Z,39.58
2017-11-17T08:41:19.809Z,41.95
2017-11-17T08:43:47.787Z,42.95
2017-11-17T08:46:15.725Z,36.40
2017-11-17T08:48:43.718Z,36.20
2017-11-17T08:51:11.673Z,37.90
2017-11-17T08:53:39.783Z,33.60
2017-11-17T08:56:07.719Z,38.25
2017-11-17T08:58:35.664Z,32.13
2017-11-17T09:01:03.663Z,38.15
2017-11-17T09:03:31.588Z,32.92
2017-11-17T09:05:59.547Z,33.60
2017-11-17T09:08:27.462Z,37.28
2017-11-17T09:10:55.424Z,36.70
2017-11-17T09:13:23.331Z,32.72
2017-11-17T09:15:52.091Z,36.47
2017-11-17T09:18:20.013Z,33.55
2017-11-17T09:20:47.974Z,39.53
2017-11-17T09:23:19.601Z,32.47
2017-11-17T09:25:47.565Z,35.83
2017-11-17T09:28:15.484Z,30.62
2017-11-17T09:30:43.441Z,32.67
2017-11-17T09:33:11.378Z,37.30
2017-11-17T09:35:39.356Z,33.33
2017-11-17T09:38:08.031Z,37.47
2017-11-17T09:40:36.020Z,30.85
2017-11-17T09:43:03.951Z,34.53
2017-11-17T09:45:31.973Z,36.25
2017-11-17T09:47:59.915Z,35.67
2017-11-17T09:50:27.929Z,37.90
2017-11-17T09:52:55.990Z,34.15
2017-11-17T09:55:24.001Z,37.28
2017-11-17T09:57:51.939Z,28.73
2017-11-17T10:00:19.974Z,34.00
2017-11-17T10:02:47.962Z,40.83
2017-11-17T10:05:15.957Z,33.20
2017-11-17T10:07:43.875Z,31.75
2017-11-17T10:10:11.813Z,39.35
2017-11-17T10:12:39.834Z,42.35
2017-11-17T10:15:08.564Z,35.25
2017-11-17T10:17:36.573Z,33.78
2017-11-17T10:20:04.555Z,33.03
2017-11-17T10:22:32.838Z,29.65
2017-11-17T10:25:01.510Z,30.50
2017-11-17T10:27:29.511Z,27.52
2017-11-17T10:29:58.352Z,26.55
2017-11-17T10:32:26.308Z,19.62
2017-11-17T10:34:54.304Z,22.95
2017-11-17T10:37:22.298Z,25.42
2017-11-17T10:39:50.233Z,23.00
2017-11-17T10:42:18.612Z,21.45
2017-11-17T10:44:46.592Z,17.05
2017-11-17T10:47:14.582Z,19.50
2017-11-17T10:49:42.502Z,19.62
2017-11-17T10:52:10.650Z,23.70
2017-11-17T10:54:38.587Z,21.87
2017-11-17T10:57:09.411Z,26.10
2017-11-17T10:59:40.362Z,24.40
2017-11-17T11:02:08.298Z,19.48
2017-11-17T11:04:36.714Z,27.67
2017-11-17T11:07:04.686Z,22.62
2017-11-17T11:09:32.639Z,19.05
2017-11-17T11:12:00.754Z,21.25
2017-11-17T11:14:34.074Z,16.55
2017-11-17T11:17:02.050Z,14.82
2017-11-17T11:19:29.975Z,14.65
2017-11-17T11:21:57.970Z,17.30
2017-11-17T11:24:26.877Z,16.58
2017-11-17T11:26:54.773Z,22.00
2017-11-17T11:29:22.913Z,19.17
2017-11-17T11:31:50.824Z,15.52
2017-11-17T11:34:18.779Z,15.32
2017-11-17T11:36:46.754Z,12.70
2017-11-17T11:39:14.696Z,24.25
2017-11-17T11:41:42.615Z,15.98
2017-11-17T11:44:10.582Z,16.43
2017-11-17T11:46:38.486Z,14.43
2017-11-17T11:49:06.428Z,13.40
2017-11-17T11:51:36.124Z,11.20
2017-11-17T11:54:16.011Z,11.73
2017-11-17T11:56:44.494Z,17.13
2017-11-17T11:59:12.678Z,13.20
2017-11-17T12:01:41.426Z,15.67
2017-11-17T12:04:09.371Z,13.63
2017-11-17T12:06:37.567Z,11.07
2017-11-17T12:09:06.144Z,11.20
2017-11-17T12:11:34.086Z,11.70
2017-11-17T12:14:02.021Z,7.33
2017-11-17T12:16:29.946Z,13.60
2017-11-17T12:18:57.891Z,9.00
2017-11-17T12:21:26.589Z,8.37
2017-11-17T12:23:54.470Z,14.03
2017-11-17T12:26:22.413Z,11.70
2017-11-17T12:28:50.481Z,10.10
2017-11-17T12:31:18.405Z,9.03
2017-11-17T12:33:46.318Z,11.67
2017-11-17T12:36:14.242Z,11.40
2017-11-17T12:38:42.209Z,11.17
2017-11-17T12:41:10.176Z,11.60
2017-11-17T12:43:39.648Z,10.03
2017-11-17T12:46:07.635Z,9.80
2017-11-17T12:48:35.731Z,12.13
2017-11-17T12:51:03.839Z,13.90
2017-11-17T12:53:31.721Z,13.03
2017-11-17T12:56:00.143Z,10.70
2017-11-17T12:58:28.052Z,9.00
2017-11-17T13:00:56.027Z,10.63
2017-11-17T13:03:23.940Z,11.20
2017-11-17T13:05:51.883Z,5.97
2017-11-17T13:08:19.789Z,13.70
2017-11-17T13:10:47.725Z,10.90
2017-11-17T13:13:15.615Z,12.60
2017-11-17T13:15:43.565Z,6.77
2017-11-17T13:18:11.456Z,8.10
2017-11-17T13:20:39.393Z,9.73
2017-11-17T13:23:08.433Z,6.40
2017-11-17T13:25:36.385Z,7.47
2017-11-17T13:28:04.286Z,10.27
2017-11-17T13:30:32.238Z,7.50
2017-11-17T13:33:00.143Z,10.57
2017-11-17T13:35:28.810Z,10.00
2017-11-17T13:37:56.768Z,8.63
2017-11-17T13:40:24.674Z,9.33
2017-11-17T13:42:52.629Z,9.37
2017-11-17T13:45:20.566Z,9.18
2017-11-17T13:47:48.535Z,7.32
2017-11-17T13:50:16.444Z,16.27
2017-11-17T13:52:44.450Z,7.12
2017-11-17T13:55:12.371Z,13.23
2017-11-17T13:57:40.328Z,8.73
2017-11-17T14:00:08.275Z,7.87
2017-11-17T14:02:36.234Z,7.00
2017-11-17T14:05:04.164Z,12.93
2017-11-17T14:07:32.880Z,11.43
2017-11-17T14:10:00.782Z,8.48
2017-11-17T14:12:28.750Z,8.02
2017-11-17T14:14:56.642Z,15.27
2017-11-17T14:17:24.649Z,6.05
2017-11-17T14:19:52.567Z,5.90
2017-11-17T14:22:24.404Z,8.15
2017-11-17T14:24:52.359Z,7.97
2017-11-17T14:27:20.379Z,6.03
2017-11-17T14:29:48.264Z,14.27
2017-11-17T14:32:16.966Z,10.90
2017-11-17T14:34:44.881Z,6.20
2017-11-17T14:37:12.850Z,7.80
2017-11-17T14:39:40.796Z,5.00
2017-11-17T14:42:08.690Z,7.75
2017-11-17T14:44:36.612Z,7.45
2017-11-17T14:47:04.537Z,14.20
2017-11-17T14:49:32.499Z,7.82
2017-11-17T14:52:03.995Z,5.30
2017-11-17T14:54:31.966Z,7.65
2017-11-17T14:57:00.622Z,5.47
2017-11-17T14:59:28.558Z,8.32
2017-11-17T15:01:56.546Z,3.65
2017-11-17T15:04:24.491Z,5.82
2017-11-17T15:06:52.436Z,7.97
2017-11-17T15:09:21.169Z,6.28
2017-11-17T15:11:49.116Z,12.43
2017-11-17T15:14:17.030Z,4.75
2017-11-17T15:16:45.010Z,6.35
2017-11-17T15:19:13.012Z,4.32
2017-11-17T15:21:40.962Z,8.02
2017-11-17T15:24:08.981Z,8.25
2017-11-17T15:26:36.947Z,10.13
2017-11-17T15:29:04.978Z,7.00
2017-11-17T15:31:33.698Z,8.93
2017-11-17T15:34:01.745Z,7.97
2017-11-17T15:36:30.434Z,14.25
2017-11-17T15:38:58.406Z,11.43
2017-11-17T15:41:26.341Z,8.15
2017-11-17T15:43:54.535Z,6.75
2017-11-17T15:46:22.487Z,5.07
2017-11-17T15:48:50.432Z,7.85
2017-11-17T15:51:18.425Z,8.10
2017-11-17T15:53:46.349Z,8.05
2017-11-17T15:56:14.314Z,6.87
2017-11-17T15:58:42.288Z,10.38
2017-11-17T16:01:10.339Z,8.75
2017-11-17T16:03:39.092Z,7.20
2017-11-17T16:06:07.115Z,6.85
2017-11-17T16:08:35.050Z,7.40
2017-11-17T16:11:03.032Z,7.60
2017-11-17T16:13:31.006Z,14.82
2017-11-17T16:15:59.762Z,4.78
2017-11-17T16:18:27.698Z,11.18
2017-11-17T16:20:55.728Z,12.95
2017-11-17T16:23:23.692Z,9.38
2017-11-17T16:25:51.729Z,8.23
2017-11-17T16:28:19.687Z,7.15
2017-11-17T16:30:47.707Z,8.70
2017-11-17T16:33:20.293Z,7.28
2017-11-17T16:35:49.248Z,11.18
2017-11-17T16:38:17.150Z,6.30
2017-11-17T16:40:45.145Z,12.80
2017-11-17T16:43:13.045Z,9.15
2017-11-17T16:45:41.059Z,7.30
2017-11-17T16:48:08.981Z,5.20
2017-11-17T16:50:36.946Z,12.57
2017-11-17T16:53:05.395Z,7.47
2017-11-17T16:55:33.869Z,11.32
2017-11-17T16:58:01.862Z,10.68
2017-11-17T17:00:29.823Z,8.55
2017-11-17T17:02:58.951Z,7.00
2017-11-17T17:05:26.861Z,11.18
2017-11-17T17:07:54.932Z,11.70
2017-11-17T17:10:22.892Z,6.70
2017-11-17T17:12:50.884Z,5.70
2017-11-17T17:15:19.628Z,7.53
2017-11-17T17:17:47.583Z,8.10
2017-11-17T17:20:16.277Z,7.62
2017-11-17T17:22:48.210Z,6.07
2017-11-17T17:25:16.893Z,9.00
2017-11-17T17:27:44.867Z,7.03
2017-11-17T17:30:12.775Z,5.75
2017-11-17T17:32:41.486Z,4.60
2017-11-17T17:35:09.449Z,5.28
2017-11-17T17:37:37.429Z,6.35
2017-11-17T17:40:05.661Z,10.88
2017-11-17T17:42:33.624Z,10.65
2017-11-17T17:45:01.524Z,7.00
2017-11-17T17:47:30.091Z,5.37
2017-11-17T17:49:58.030Z,7.60
2017-11-17T17:52:27.732Z,7.80
2017-11-17T17:54:55.892Z,4.93
2017-11-17T17:57:23.895Z,4.35
2017-11-17T17:59:51.947Z,11.23
2017-11-17T18:02:20.768Z,6.05
2017-11-17T18:04:48.751Z,4.40
2017-11-17T18:07:16.665Z,6.45
2017-11-17T18:09:44.669Z,4.93
2017-11-17T18:12:12.596Z,8.95
2017-11-17T18:14:43.449Z,7.28
2017-11-17T18:17:11.434Z,6.57
2017-11-17T18:19:39.397Z,5.95
2017-11-17T18:22:12.022Z,8.13
2017-11-17T18:24:40.006Z,9.77
2017-11-17T18:27:07.943Z,10.25
2017-11-17T18:29:35.890Z,11.00
2017-11-17T18:32:04.566Z,10.85
2017-11-17T18:34:33.373Z,11.30
2017-11-17T18:37:01.292Z,7.18
2017-11-17T18:39:29.299Z,11.25
2017-11-17T18:41:57.221Z,16.52
2017-11-17T18:44:25.291Z,7.07
2017-11-17T18:46:53.192Z,8.00
2017-11-17T18:49:21.207Z,14.50
2017-11-17T18:51:49.096Z,7.40
2017-11-17T18:54:17.085Z,9.43
2017-11-17T18:56:45.802Z,6.20
2017-11-17T18:59:14.087Z,15.70
2017-11-17T19:01:42.800Z,5.55
2017-11-17T19:04:11.183Z,11.57
2017-11-17T19:06:39.074Z,10.38
2017-11-17T19:09:07.034Z,18.85
2017-11-17T19:11:35.127Z,23.45
2017-11-17T19:14:03.111Z,15.30
2017-11-17T19:16:31.063Z,21.83
2017-11-17T19:18:59.022Z,30.15
2017-11-17T19:21:27.205Z,23.17
2017-11-17T19:23:55.191Z,29.60
2017-11-17T19:26:23.087Z,18.35
2017-11-17T19:28:51.746Z,28.67
2017-11-17T19:31:19.696Z,20.55
2017-11-17T19:33:47.599Z,28.42
2017-11-17T19:36:15.529Z,18.50
2017-11-17T19:38:43.439Z,20.48
2017-11-17T19:41:11.388Z,18.27
2017-11-17T19:43:39.337Z,20.30
2017-11-17T19:46:07.288Z,16.55
2017-11-17T19:48:35.199Z,21.20
2017-11-17T19:51:03.152Z,36.28
2017-11-17T19:53:31.332Z,31.70
2017-11-17T19:55:59.386Z,38.03
2017-11-17T19:58:27.297Z,25.20
2017-11-17T20:00:55.235Z,31.73
2017-11-17T20:03:26.922Z,39.78
2017-11-17T20:05:54.888Z,37.17
2017-11-17T20:08:22.800Z,29.77
2017-11-17T20:10:50.758Z,26.73
2017-11-17T20:13:23.368Z,27.50
2017-11-17T20:15:51.317Z,27.27
2017-11-17T20:18:19.280Z,18.17
2017-11-17T20:20:47.243Z,16.90
2017-11-17T20:23:15.899Z,17.48
2017-11-17T20:25:43.821Z,22.70
2017-11-17T20:28:11.911Z,27.33
2017-11-17T20:30:39.896Z,19.15
2017-11-17T20:33:08.667Z,20.88
2017-11-17T20:35:36.608Z,20.45
2017-11-17T20:38:06.069Z,16.00
2017-11-17T20:40:34.877Z,29.85
2017-11-17T20:43:02.983Z,26.90
2017-11-17T20:45:30.882Z,27.42
2017-11-17T20:47:58.862Z,21.80
2017-11-17T20:50:26.855Z,24.42
2017-11-17T20:52:57.142Z,27.23
2017-11-17T20:55:27.040Z,19.92
2017-11-17T20:57:55.053Z,22.67
2017-11-17T21:00:22.968Z,19.48
2017-11-17T21:02:51.158Z,16.52
2017-11-17T21:05:19.070Z,17.50
2017-11-17T21:07:47.033Z,21.75
2017-11-17T21:10:14.944Z,27.10
2017-11-17T21:12:42.896Z,24.10
2017-11-17T21:15:10.794Z,49.53
2017-11-17T21:17:38.734Z,47.55
2017-11-17T21:20:06.629Z,25.65
2017-11-17T21:22:34.614Z,38.17
2017-11-17T21:25:02.552Z,58.08
2017-11-17T21:27:31.282Z,20.65
2017-11-17T21:29:59.191Z,48.22
2017-11-17T21:32:27.302Z,66.72
2017-11-17T21:34:55.225Z,40.17
2017-11-17T21:37:23.210Z,15.82
2017-11-17T21:39:51.171Z,16.25
2017-11-17T21:42:19.133Z,17.30
2017-11-17T21:44:47.104Z,12.15
2017-11-17T21:47:15.032Z,14.20
2017-11-17T21:49:43.008Z,15.35
2017-11-17T21:52:10.975Z,12.32
2017-11-17T21:54:38.957Z,21.12
2017-11-17T21:57:06.894Z,9.43
2017-11-17T21:59:35.620Z,12.65
2017-11-17T22:02:03.693Z,11.30
2017-11-17T22:04:31.667Z,12.43
2017-11-17T22:06:59.598Z,36.03
2017-11-17T22:09:27.578Z,13.88
2017-11-17T22:11:55.496Z,12.30
2017-11-17T22:14:23.485Z,20.20
2017-11-17T22:16:52.347Z,13.35
2017-11-17T22:19:20.315Z,18.58
2017-11-17T22:21:48.240Z,12.63
2017-11-17T22:24:16.230Z,16.40
2017-11-17T22:26:44.144Z,32.70
2017-11-17T22:29:12.239Z,18.77
2017-11-17T22:31:40.906Z,20.90
2017-11-17T22:34:08.883Z,31.55
2017-11-17T22:36:36.810Z,10.90
2017-11-17T22:39:04.844Z,25.77
2017-11-17T22:41:33.410Z,11.00
2017-11-17T22:44:02.135Z,8.75
2017-11-17T22:46:30.096Z,10.35
2017-11-17T22:48:58.010Z,11.57
2017-11-17T22:51:25.987Z,9.52
2017-11-17T22:53:54.073Z,12.85
2017-11-17T22:56:27.702Z,7.60
2017-11-17T22:58:55.926Z,7.62
2017-11-17T23:01:23.859Z,7.72
2017-11-17T23:03:51.798Z,8.70
2017-11-17T23:06:19.771Z,7.60
2017-11-17T23:08:49.258Z,7.82
2017-11-17T23:11:17.365Z,42.03
2017-11-17T23:13:46.527Z,5.68
2017-11-17T23:16:14.496Z,13.50
2017-11-17T23:18:42.403Z,12.23
2017-11-17T23:21:10.386Z,27.20
2017-11-17T23:23:51.115Z,6.80
2017-11-17T23:26:19.139Z,6.40
2017-11-17T23:28:47.102Z,12.30
2017-11-17T23:31:15.062Z,7.45
2017-11-17T23:33:42.970Z,13.65
2017-11-17T23:36:10.960Z,35.42
2017-11-17T23:38:38.876Z,12.98
2017-11-17T23:41:06.896Z,17.62
2017-11-17T23:43:34.881Z,8.48
2017-11-17T23:46:03.625Z,10.43
2017-11-17T23:48:31.545Z,27.50
2017-11-17T23:50:59.561Z,14.30
2017-11-17T23:53:28.784Z,7.75
2017-11-17T23:55:56.811Z,7.80
2017-11-17T23:58:31.461Z,8.70
